sensor_id;sensor_type;location;lat;lon;timestamp;pressure;altitude;pressure_sealevel;temperature;humidity
55486;BME280;49383;-25.924;28.194;2023-02-18T00:00:44;84741.62;;;21.06;54.24
55486;BME280;49383;-25.924;28.194;2023-02-18T00:03:10;84739.55;;;21.50;54.49
55486;BME280;49383;-25.924;28.194;2023-02-18T00:05:35;84736.99;;;21.43;55.21
55486;BME280;49383;-25.924;28.194;2023-02-18T00:08:00;84738.71;;;21.25;56.06
55486;BME280;49383;-25.924;28.194;2023-02-18T00:10:25;84736.12;;;21.50;51.58
55486;BME280;49383;-25.924;28.194;2023-02-18T00:12:50;84724.68;;;21.39;51.14
55486;BME280;49383;-25.924;28.194;2023-02-18T00:15:15;84726.71;;;21.66;52.99
55486;BME280;49383;-25.924;28.194;2023-02-18T00:17:40;84723.28;;;21.10;54.27
55486;BME280;49383;-25.924;28.194;2023-02-18T00:20:07;84720.51;;;21.40;54.89
55486;BME280;49383;-25.924;28.194;2023-02-18T00:22:31;84717.79;;;21.60;55.46
55486;BME280;49383;-25.924;28.194;2023-02-18T00:24:56;84717.60;;;21.34;54.79
55486;BME280;49383;-25.924;28.194;2023-02-18T00:27:22;84707.63;;;21.31;50.98
55486;BME280;49383;-25.924;28.194;2023-02-18T00:29:45;84707.97;;;21.63;49.58
55486;BME280;49383;-25.924;28.194;2023-02-18T00:32:11;84704.83;;;21.67;51.11
55486;BME280;49383;-25.924;28.194;2023-02-18T00:34:36;84702.56;;;21.69;52.95
55486;BME280;49383;-25.924;28.194;2023-02-18T00:37:01;84710.36;;;21.31;54.52
55486;BME280;49383;-25.924;28.194;2023-02-18T00:39:27;84713.34;;;21.19;55.38
55486;BME280;49383;-25.924;28.194;2023-02-18T00:41:52;84713.19;;;21.18;55.98
55486;BME280;49383;-25.924;28.194;2023-02-18T00:44:17;84711.96;;;21.20;54.83
55486;BME280;49383;-25.924;28.194;2023-02-18T00:46:42;84701.76;;;21.08;51.29
55486;BME280;49383;-25.924;28.194;2023-02-18T00:49:07;84699.03;;;21.60;49.85
55486;BME280;49383;-25.924;28.194;2023-02-18T00:51:32;84697.78;;;21.62;51.21
55486;BME280;49383;-25.924;28.194;2023-02-18T00:53:57;84696.98;;;21.35;53.42
55486;BME280;49383;-25.924;28.194;2023-02-18T00:56:22;84695.54;;;21.00;54.43
55486;BME280;49383;-25.924;28.194;2023-02-18T00:58:47;84685.91;;;21.35;54.98
55486;BME280;49383;-25.924;28.194;2023-02-18T01:01:12;84683.59;;;21.11;55.49
55486;BME280;49383;-25.924;28.194;2023-02-18T01:03:39;84681.03;;;21.25;55.11
55486;BME280;49383;-25.924;28.194;2023-02-18T01:06:03;84680.98;;;21.88;50.63
55486;BME280;49383;-25.924;28.194;2023-02-18T01:08:27;84683.96;;;21.55;50.39
55486;BME280;49383;-25.924;28.194;2023-02-18T01:10:54;84684.80;;;21.47;52.35
55486;BME280;49383;-25.924;28.194;2023-02-18T01:13:17;84690.35;;;21.64;53.54
55486;BME280;49383;-25.924;28.194;2023-02-18T01:15:42;84689.92;;;21.28;54.44
55486;BME280;49383;-25.924;28.194;2023-02-18T01:18:08;84689.75;;;21.21;55.13
55486;BME280;49383;-25.924;28.194;2023-02-18T01:20:32;84692.44;;;21.10;55.75
55486;BME280;49383;-25.924;28.194;2023-02-18T01:22:58;84689.06;;;21.40;52.96
55486;BME280;49383;-25.924;28.194;2023-02-18T01:25:23;84692.17;;;21.12;51.14
55486;BME280;49383;-25.924;28.194;2023-02-18T01:27:49;84688.25;;;21.48;50.22
55486;BME280;49383;-25.924;28.194;2023-02-18T01:30:16;84686.66;;;21.40;51.80
55486;BME280;49383;-25.924;28.194;2023-02-18T01:32:39;84688.05;;;21.04;53.61
55486;BME280;49383;-25.924;28.194;2023-02-18T01:35:06;84680.58;;;21.28;54.47
55486;BME280;49383;-25.924;28.194;2023-02-18T01:37:29;84678.68;;;21.25;55.24
55486;BME280;49383;-25.924;28.194;2023-02-18T01:39:54;84678.57;;;21.37;55.43
55486;BME280;49383;-25.924;28.194;2023-02-18T01:42:21;84678.41;;;21.31;55.97
55486;BME280;49383;-25.924;28.194;2023-02-18T01:44:46;84680.03;;;21.19;51.59
55486;BME280;49383;-25.924;28.194;2023-02-18T01:47:09;84683.95;;;21.55;50.53
55486;BME280;49383;-25.924;28.194;2023-02-18T01:49:35;84688.58;;;21.56;52.66
55486;BME280;49383;-25.924;28.194;2023-02-18T01:52:04;84698.62;;;21.25;54.24
55486;BME280;49383;-25.924;28.194;2023-02-18T01:54:28;84695.10;;;21.42;54.72
55486;BME280;49383;-25.924;28.194;2023-02-18T01:56:52;84696.36;;;21.22;55.08
55486;BME280;49383;-25.924;28.194;2023-02-18T01:59:19;84695.01;;;21.21;54.97
55486;BME280;49383;-25.924;28.194;2023-02-18T02:01:42;84690.88;;;21.31;51.21
55486;BME280;49383;-25.924;28.194;2023-02-18T02:04:07;84693.59;;;21.80;50.52
55486;BME280;49383;-25.924;28.194;2023-02-18T02:06:30;84690.69;;;21.51;52.85
55486;BME280;49383;-25.924;28.194;2023-02-18T02:08:56;84689.83;;;21.18;53.79
55486;BME280;49383;-25.924;28.194;2023-02-18T02:11:29;84688.99;;;21.13;54.67
55486;BME280;49383;-25.924;28.194;2023-02-18T02:13:57;84694.32;;;21.23;55.64
55486;BME280;49383;-25.924;28.194;2023-02-18T02:16:14;84694.69;;;21.20;56.14
55486;BME280;49383;-25.924;28.194;2023-02-18T02:18:48;84692.98;;;20.94;52.04
55486;BME280;49383;-25.924;28.194;2023-02-18T02:23:44;84691.26;;;21.68;52.02
55486;BME280;49383;-25.924;28.194;2023-02-18T02:33:20;84694.13;;;21.37;55.70
55486;BME280;49383;-25.924;28.194;2023-02-18T02:35:38;84689.36;;;21.39;52.95
55486;BME280;49383;-25.924;28.194;2023-02-18T02:38:05;84687.92;;;21.30;51.13
55486;BME280;49383;-25.924;28.194;2023-02-18T02:40:32;84692.64;;;21.51;51.50
55486;BME280;49383;-25.924;28.194;2023-02-18T02:43:01;84697.67;;;21.38;53.43
55486;BME280;49383;-25.924;28.194;2023-02-18T02:45:24;84699.67;;;21.11;54.65
55486;BME280;49383;-25.924;28.194;2023-02-18T02:47:47;84694.86;;;21.26;54.67
55486;BME280;49383;-25.924;28.194;2023-02-18T02:50:12;84695.68;;;21.52;55.06
55486;BME280;49383;-25.924;28.194;2023-02-18T02:52:35;84695.28;;;21.44;55.24
55486;BME280;49383;-25.924;28.194;2023-02-18T02:54:58;84692.79;;;21.63;51.86
55486;BME280;49383;-25.924;28.194;2023-02-18T02:59:51;84692.11;;;21.58;52.06
55486;BME280;49383;-25.924;28.194;2023-02-18T03:02:23;84693.12;;;21.44;53.86
55486;BME280;49383;-25.924;28.194;2023-02-18T03:09:37;84711.03;;;21.22;56.02
55486;BME280;49383;-25.924;28.194;2023-02-18T03:11:57;84721.80;;;21.35;56.25
55486;BME280;49383;-25.924;28.194;2023-02-18T03:14:24;84729.41;;;21.19;55.10
55486;BME280;49383;-25.924;28.194;2023-02-18T03:16:47;84728.54;;;21.49;51.48
55486;BME280;49383;-25.924;28.194;2023-02-18T03:19:15;84733.48;;;21.83;49.95
55486;BME280;49383;-25.924;28.194;2023-02-18T03:21:38;84734.51;;;21.89;49.93
55486;BME280;49383;-25.924;28.194;2023-02-18T03:24:02;84733.20;;;21.80;52.22
55486;BME280;49383;-25.924;28.194;2023-02-18T03:26:27;84737.95;;;21.28;54.26
55486;BME280;49383;-25.924;28.194;2023-02-18T03:28:53;84735.04;;;21.14;55.34
55486;BME280;49383;-25.924;28.194;2023-02-18T03:31:19;84735.50;;;20.89;55.81
55486;BME280;49383;-25.924;28.194;2023-02-18T03:33:46;84733.48;;;21.35;55.95
55486;BME280;49383;-25.924;28.194;2023-02-18T03:36:08;84729.33;;;21.41;56.18
55486;BME280;49383;-25.924;28.194;2023-02-18T03:38:38;84726.93;;;21.22;53.21
55486;BME280;49383;-25.924;28.194;2023-02-18T03:40:58;84720.36;;;21.58;49.99
55486;BME280;49383;-25.924;28.194;2023-02-18T03:43:23;84724.34;;;21.58;52.05
55486;BME280;49383;-25.924;28.194;2023-02-18T03:45:47;84726.92;;;21.47;53.41
55486;BME280;49383;-25.924;28.194;2023-02-18T03:48:13;84729.71;;;21.29;54.63
55486;BME280;49383;-25.924;28.194;2023-02-18T03:50:38;84730.57;;;21.18;55.53
55486;BME280;49383;-25.924;28.194;2023-02-18T03:53:04;84731.07;;;21.12;56.19
55486;BME280;49383;-25.924;28.194;2023-02-18T03:55:29;84729.93;;;20.96;56.19
55486;BME280;49383;-25.924;28.194;2023-02-18T03:57:54;84732.74;;;21.22;51.34
55486;BME280;49383;-25.924;28.194;2023-02-18T04:00:20;84740.44;;;21.48;50.64
55486;BME280;49383;-25.924;28.194;2023-02-18T04:02:44;84745.02;;;21.25;52.31
55486;BME280;49383;-25.924;28.194;2023-02-18T04:05:10;84749.18;;;21.10;53.15
55486;BME280;49383;-25.924;28.194;2023-02-18T04:07:35;84752.86;;;21.58;53.46
55486;BME280;49383;-25.924;28.194;2023-02-18T04:10:02;84756.28;;;21.38;54.28
55486;BME280;49383;-25.924;28.194;2023-02-18T04:12:26;84759.65;;;21.76;50.62
55486;BME280;49383;-25.924;28.194;2023-02-18T04:14:51;84757.41;;;21.54;48.81
55486;BME280;49383;-25.924;28.194;2023-02-18T04:17:17;84768.23;;;21.55;48.42
55486;BME280;49383;-25.924;28.194;2023-02-18T04:19:43;84772.65;;;21.52;48.30
55486;BME280;49383;-25.924;28.194;2023-02-18T04:22:08;84774.13;;;21.39;48.18
55486;BME280;49383;-25.924;28.194;2023-02-18T04:24:33;84776.93;;;21.54;46.64
55486;BME280;49383;-25.924;28.194;2023-02-18T04:26:59;84780.38;;;22.02;47.20
55486;BME280;49383;-25.924;28.194;2023-02-18T04:29:24;84785.74;;;21.72;49.39
55486;BME280;49383;-25.924;28.194;2023-02-18T04:31:50;84788.18;;;21.49;50.99
55486;BME280;49383;-25.924;28.194;2023-02-18T04:34:15;84787.00;;;21.21;52.10
55486;BME280;49383;-25.924;28.194;2023-02-18T04:36:40;84789.31;;;21.69;52.95
55486;BME280;49383;-25.924;28.194;2023-02-18T04:39:05;84790.12;;;21.21;54.20
55486;BME280;49383;-25.924;28.194;2023-02-18T04:41:30;84788.47;;;21.15;54.92
55486;BME280;49383;-25.924;28.194;2023-02-18T04:43:55;84788.59;;;20.99;52.02
55486;BME280;49383;-25.924;28.194;2023-02-18T04:46:20;84787.99;;;21.15;50.13
55486;BME280;49383;-25.924;28.194;2023-02-18T04:48:45;84788.90;;;21.64;50.68
55486;BME280;49383;-25.924;28.194;2023-02-18T04:51:11;84787.92;;;21.50;52.74
55486;BME280;49383;-25.924;28.194;2023-02-18T04:53:36;84789.23;;;21.33;53.99
55486;BME280;49383;-25.924;28.194;2023-02-18T04:56:02;84788.64;;;21.32;54.79
55486;BME280;49383;-25.924;28.194;2023-02-18T04:58:27;84786.51;;;21.04;55.91
55486;BME280;49383;-25.924;28.194;2023-02-18T05:00:53;84786.95;;;21.35;52.34
55486;BME280;49383;-25.924;28.194;2023-02-18T05:03:19;84789.82;;;21.19;50.29
55486;BME280;49383;-25.924;28.194;2023-02-18T05:05:44;84790.83;;;21.50;50.17
55486;BME280;49383;-25.924;28.194;2023-02-18T05:08:11;84790.72;;;21.58;52.18
55486;BME280;49383;-25.924;28.194;2023-02-18T05:10:37;84792.01;;;21.51;53.86
55486;BME280;49383;-25.924;28.194;2023-02-18T05:13:01;84790.79;;;21.04;54.94
55486;BME280;49383;-25.924;28.194;2023-02-18T05:15:26;84795.92;;;21.09;55.60
55486;BME280;49383;-25.924;28.194;2023-02-18T05:17:51;84798.89;;;21.26;54.88
55486;BME280;49383;-25.924;28.194;2023-02-18T05:20:17;84800.58;;;21.28;50.53
55486;BME280;49383;-25.924;28.194;2023-02-18T05:22:42;84800.50;;;21.59;48.70
55486;BME280;49383;-25.924;28.194;2023-02-18T05:25:07;84800.23;;;21.28;51.25
55486;BME280;49383;-25.924;28.194;2023-02-18T05:27:33;84799.91;;;21.15;53.09
55486;BME280;49383;-25.924;28.194;2023-02-18T05:29:58;84801.14;;;21.14;53.83
55486;BME280;49383;-25.924;28.194;2023-02-18T05:32:24;84800.45;;;21.09;54.22
55486;BME280;49383;-25.924;28.194;2023-02-18T05:34:48;84800.38;;;21.57;54.46
55486;BME280;49383;-25.924;28.194;2023-02-18T05:37:13;84803.19;;;21.23;54.71
55486;BME280;49383;-25.924;28.194;2023-02-18T05:39:39;84805.77;;;21.32;50.86
55486;BME280;49383;-25.924;28.194;2023-02-18T05:42:04;84809.93;;;21.60;48.67
55486;BME280;49383;-25.924;28.194;2023-02-18T05:44:29;84810.05;;;21.83;47.35
55486;BME280;49383;-25.924;28.194;2023-02-18T05:46:55;84809.18;;;21.79;47.51
55486;BME280;49383;-25.924;28.194;2023-02-18T05:49:21;84812.86;;;21.50;49.55
55486;BME280;49383;-25.924;28.194;2023-02-18T05:51:45;84814.27;;;21.55;51.48
55486;BME280;49383;-25.924;28.194;2023-02-18T05:54:10;84814.29;;;21.62;52.75
55486;BME280;49383;-25.924;28.194;2023-02-18T05:56:35;84819.16;;;21.64;52.78
55486;BME280;49383;-25.924;28.194;2023-02-18T05:59:01;84821.61;;;21.49;53.91
55486;BME280;49383;-25.924;28.194;2023-02-18T06:01:27;84822.03;;;21.73;50.79
55486;BME280;49383;-25.924;28.194;2023-02-18T06:03:52;84825.06;;;21.43;48.80
55486;BME280;49383;-25.924;28.194;2023-02-18T06:06:17;84824.93;;;21.90;47.75
55486;BME280;49383;-25.924;28.194;2023-02-18T06:08:42;84824.64;;;21.76;49.57
55486;BME280;49383;-25.924;28.194;2023-02-18T06:11:07;84825.85;;;21.33;51.18
55486;BME280;49383;-25.924;28.194;2023-02-18T06:13:32;84825.19;;;21.77;51.78
55486;BME280;49383;-25.924;28.194;2023-02-18T06:15:57;84827.72;;;21.77;51.85
55486;BME280;49383;-25.924;28.194;2023-02-18T06:18:23;84834.06;;;21.86;52.43
55486;BME280;49383;-25.924;28.194;2023-02-18T06:20:48;84834.73;;;21.69;53.19
55486;BME280;49383;-25.924;28.194;2023-02-18T06:23:14;84834.60;;;22.06;52.92
55486;BME280;49383;-25.924;28.194;2023-02-18T06:25:40;84835.13;;;21.80;49.84
55486;BME280;49383;-25.924;28.194;2023-02-18T06:28:06;84836.36;;;22.09;47.96
55486;BME280;49383;-25.924;28.194;2023-02-18T06:30:31;84833.39;;;21.90;50.32
55486;BME280;49383;-25.924;28.194;2023-02-18T06:32:57;84829.63;;;21.38;51.76
55486;BME280;49383;-25.924;28.194;2023-02-18T06:35:21;84826.24;;;21.71;52.32
55486;BME280;49383;-25.924;28.194;2023-02-18T06:37:47;84832.54;;;21.46;53.17
55486;BME280;49383;-25.924;28.194;2023-02-18T06:40:12;84825.58;;;21.74;53.48
55486;BME280;49383;-25.924;28.194;2023-02-18T06:42:36;84828.64;;;21.69;53.63
55486;BME280;49383;-25.924;28.194;2023-02-18T06:45:02;84828.27;;;22.08;49.64
55486;BME280;49383;-25.924;28.194;2023-02-18T06:47:27;84827.41;;;21.78;48.58
55486;BME280;49383;-25.924;28.194;2023-02-18T06:49:52;84830.70;;;21.74;47.85
55486;BME280;49383;-25.924;28.194;2023-02-18T06:52:18;84833.02;;;21.92;46.81
55486;BME280;49383;-25.924;28.194;2023-02-18T06:54:44;84837.16;;;21.98;46.88
55486;BME280;49383;-25.924;28.194;2023-02-18T06:57:08;84843.02;;;21.86;49.26
55486;BME280;49383;-25.924;28.194;2023-02-18T06:59:34;84846.11;;;21.82;50.52
55486;BME280;49383;-25.924;28.194;2023-02-18T07:02:00;84846.38;;;21.80;50.88
55486;BME280;49383;-25.924;28.194;2023-02-18T07:04:25;84843.66;;;21.74;51.68
55486;BME280;49383;-25.924;28.194;2023-02-18T07:06:49;84842.61;;;21.79;52.61
55486;BME280;49383;-25.924;28.194;2023-02-18T07:09:15;84844.36;;;21.64;53.25
55486;BME280;49383;-25.924;28.194;2023-02-18T07:11:41;84842.84;;;21.88;52.63
55486;BME280;49383;-25.924;28.194;2023-02-18T07:14:06;84840.47;;;21.89;49.22
55486;BME280;49383;-25.924;28.194;2023-02-18T07:16:31;84838.53;;;21.85;48.53
55486;BME280;49383;-25.924;28.194;2023-02-18T07:18:56;84832.69;;;21.44;50.54
55486;BME280;49383;-25.924;28.194;2023-02-18T07:21:22;84835.74;;;21.72;51.40
55486;BME280;49383;-25.924;28.194;2023-02-18T07:23:46;84840.82;;;21.68;51.88
55486;BME280;49383;-25.924;28.194;2023-02-18T07:26:13;84845.90;;;22.13;52.07
55486;BME280;49383;-25.924;28.194;2023-02-18T07:28:38;84843.03;;;22.25;51.16
55486;BME280;49383;-25.924;28.194;2023-02-18T07:31:03;84842.60;;;22.29;48.61
55486;BME280;49383;-25.924;28.194;2023-02-18T07:33:28;84846.76;;;22.04;47.77
55486;BME280;49383;-25.924;28.194;2023-02-18T07:35:55;84848.14;;;22.04;47.19
55486;BME280;49383;-25.924;28.194;2023-02-18T07:38:18;84850.39;;;21.88;46.31
55486;BME280;49383;-25.924;28.194;2023-02-18T07:40:44;84851.32;;;22.22;45.54
55486;BME280;49383;-25.924;28.194;2023-02-18T07:43:08;84845.98;;;22.19;46.14
55486;BME280;49383;-25.924;28.194;2023-02-18T07:45:34;84844.96;;;21.93;48.23
55486;BME280;49383;-25.924;28.194;2023-02-18T07:47:59;84845.81;;;22.25;49.76
55486;BME280;49383;-25.924;28.194;2023-02-18T07:50:24;84847.92;;;21.78;50.74
55486;BME280;49383;-25.924;28.194;2023-02-18T07:52:49;84852.34;;;22.09;51.29
55486;BME280;49383;-25.924;28.194;2023-02-18T07:55:15;84851.56;;;21.82;51.97
55486;BME280;49383;-25.924;28.194;2023-02-18T07:57:41;84854.20;;;22.21;48.75
55486;BME280;49383;-25.924;28.194;2023-02-18T08:00:07;84854.02;;;22.19;46.97
55486;BME280;49383;-25.924;28.194;2023-02-18T08:02:31;84853.25;;;22.33;47.49
55486;BME280;49383;-25.924;28.194;2023-02-18T08:04:56;84854.80;;;21.82;49.53
55486;BME280;49383;-25.924;28.194;2023-02-18T08:07:22;84855.24;;;22.17;51.26
55486;BME280;49383;-25.924;28.194;2023-02-18T08:09:47;84851.60;;;21.77;52.26
55486;BME280;49383;-25.924;28.194;2023-02-18T08:12:12;84853.02;;;21.96;49.14
55486;BME280;49383;-25.924;28.194;2023-02-18T08:14:37;84853.31;;;22.22;46.93
55486;BME280;49383;-25.924;28.194;2023-02-18T08:17:03;84848.40;;;22.19;47.86
55486;BME280;49383;-25.924;28.194;2023-02-18T08:19:28;84846.91;;;21.88;48.98
55486;BME280;49383;-25.924;28.194;2023-02-18T08:21:53;84844.15;;;21.85;47.15
55486;BME280;49383;-25.924;28.194;2023-02-18T08:24:18;84845.78;;;21.99;46.10
55486;BME280;49383;-25.924;28.194;2023-02-18T08:26:43;84847.96;;;21.83;45.70
55486;BME280;49383;-25.924;28.194;2023-02-18T08:29:09;84850.83;;;21.80;45.97
55486;BME280;49383;-25.924;28.194;2023-02-18T08:31:35;84851.92;;;21.98;45.42
55486;BME280;49383;-25.924;28.194;2023-02-18T08:34:01;84848.68;;;22.05;46.24
55486;BME280;49383;-25.924;28.194;2023-02-18T08:36:26;84851.68;;;22.11;48.46
55486;BME280;49383;-25.924;28.194;2023-02-18T08:38:51;84852.50;;;21.79;49.60
55486;BME280;49383;-25.924;28.194;2023-02-18T08:41:16;84852.37;;;22.15;50.34
55486;BME280;49383;-25.924;28.194;2023-02-18T08:43:41;84853.21;;;22.11;51.15
55486;BME280;49383;-25.924;28.194;2023-02-18T08:46:06;84849.40;;;21.94;51.76
55486;BME280;49383;-25.924;28.194;2023-02-18T08:48:32;84842.31;;;22.35;50.55
55486;BME280;49383;-25.924;28.194;2023-02-18T08:50:57;84842.86;;;21.76;48.57
55486;BME280;49383;-25.924;28.194;2023-02-18T08:53:21;84838.14;;;22.25;47.84
55486;BME280;49383;-25.924;28.194;2023-02-18T08:55:46;84834.76;;;21.88;47.15
55486;BME280;49383;-25.924;28.194;2023-02-18T08:58:11;84834.58;;;21.90;46.88
55486;BME280;49383;-25.924;28.194;2023-02-18T09:00:38;84842.30;;;22.11;47.09
55486;BME280;49383;-25.924;28.194;2023-02-18T09:03:03;84836.09;;;21.97;45.75
55486;BME280;49383;-25.924;28.194;2023-02-18T09:05:28;84835.63;;;22.33;44.27
55486;BME280;49383;-25.924;28.194;2023-02-18T09:07:53;84831.83;;;22.19;43.69
55486;BME280;49383;-25.924;28.194;2023-02-18T09:10:18;84828.57;;;22.13;42.38
55486;BME280;49383;-25.924;28.194;2023-02-18T09:12:43;84826.00;;;22.32;42.62
55486;BME280;49383;-25.924;28.194;2023-02-18T09:15:09;84822.44;;;22.16;42.95
55486;BME280;49383;-25.924;28.194;2023-02-18T09:17:34;84820.49;;;22.12;43.95
55486;BME280;49383;-25.924;28.194;2023-02-18T09:20:00;84819.68;;;22.09;45.35
55486;BME280;49383;-25.924;28.194;2023-02-18T09:22:24;84819.92;;;21.88;44.99
55486;BME280;49383;-25.924;28.194;2023-02-18T09:24:51;84819.63;;;22.22;44.30
55486;BME280;49383;-25.924;28.194;2023-02-18T09:27:15;84821.16;;;22.17;43.82
55486;BME280;49383;-25.924;28.194;2023-02-18T09:29:41;84819.87;;;22.25;42.60
55486;BME280;49383;-25.924;28.194;2023-02-18T09:32:06;84815.41;;;22.45;42.03
55486;BME280;49383;-25.924;28.194;2023-02-18T09:34:32;84812.20;;;21.96;42.32
55486;BME280;49383;-25.924;28.194;2023-02-18T09:36:57;84812.98;;;21.91;42.50
55486;BME280;49383;-25.924;28.194;2023-02-18T09:39:22;84812.81;;;22.32;42.81
55486;BME280;49383;-25.924;28.194;2023-02-18T09:41:48;84813.03;;;22.16;43.08
55486;BME280;49383;-25.924;28.194;2023-02-18T09:44:15;84814.96;;;22.05;42.89
55486;BME280;49383;-25.924;28.194;2023-02-18T09:46:41;84813.33;;;21.90;42.47
55486;BME280;49383;-25.924;28.194;2023-02-18T09:49:05;84807.09;;;21.86;42.57
55486;BME280;49383;-25.924;28.194;2023-02-18T09:51:28;84805.02;;;22.37;42.44
55486;BME280;49383;-25.924;28.194;2023-02-18T09:53:52;84804.75;;;22.24;42.04
55486;BME280;49383;-25.924;28.194;2023-02-18T09:56:26;84799.74;;;22.16;42.33
55486;BME280;49383;-25.924;28.194;2023-02-18T09:58:43;84797.91;;;21.88;42.18
55486;BME280;49383;-25.924;28.194;2023-02-18T10:01:16;84796.72;;;22.39;41.61
55486;BME280;49383;-25.924;28.194;2023-02-18T10:03:33;84795.26;;;22.03;41.81
55486;BME280;49383;-25.924;28.194;2023-02-18T10:06:01;84793.83;;;22.44;41.53
55486;BME280;49383;-25.924;28.194;2023-02-18T10:08:26;84790.25;;;22.45;41.31
55486;BME280;49383;-25.924;28.194;2023-02-18T10:10:49;84782.37;;;21.96;41.61
55486;BME280;49383;-25.924;28.194;2023-02-18T10:13:17;84782.38;;;22.18;41.67
55486;BME280;49383;-25.924;28.194;2023-02-18T10:15:41;84783.85;;;22.25;41.37
55486;BME280;49383;-25.924;28.194;2023-02-18T10:18:10;84785.65;;;22.27;41.30
55486;BME280;49383;-25.924;28.194;2023-02-18T10:20:31;84785.73;;;22.40;41.13
55486;BME280;49383;-25.924;28.194;2023-02-18T10:22:59;84781.82;;;22.06;41.22
55486;BME280;49383;-25.924;28.194;2023-02-18T10:25:22;84780.56;;;22.15;41.44
55486;BME280;49383;-25.924;28.194;2023-02-18T10:27:45;84782.25;;;22.15;41.46
55486;BME280;49383;-25.924;28.194;2023-02-18T10:32:37;84781.49;;;22.28;41.34
55486;BME280;49383;-25.924;28.194;2023-02-18T10:35:05;84783.26;;;22.15;41.06
55486;BME280;49383;-25.924;28.194;2023-02-18T10:37:39;84779.47;;;22.03;41.28
55486;BME280;49383;-25.924;28.194;2023-02-18T10:39:59;84777.43;;;22.01;41.29
55486;BME280;49383;-25.924;28.194;2023-02-18T10:42:25;84780.73;;;22.47;40.83
55486;BME280;49383;-25.924;28.194;2023-02-18T10:44:49;84777.87;;;22.29;41.05
55486;BME280;49383;-25.924;28.194;2023-02-18T10:47:28;84779.28;;;21.98;41.20
55486;BME280;49383;-25.924;28.194;2023-02-18T10:49:43;84774.56;;;22.15;41.09
55486;BME280;49383;-25.924;28.194;2023-02-18T10:51:58;84772.45;;;21.89;41.23
55486;BME280;49383;-25.924;28.194;2023-02-18T10:54:24;84769.36;;;22.27;40.90
55486;BME280;49383;-25.924;28.194;2023-02-18T10:56:50;84765.14;;;22.31;40.78
55486;BME280;49383;-25.924;28.194;2023-02-18T10:59:19;84761.61;;;22.44;40.59
55486;BME280;49383;-25.924;28.194;2023-02-18T11:01:40;84758.51;;;21.85;40.71
55486;BME280;49383;-25.924;28.194;2023-02-18T11:04:10;84749.31;;;21.93;40.65
55486;BME280;49383;-25.924;28.194;2023-02-18T11:06:33;84746.84;;;21.79;42.13
55486;BME280;49383;-25.924;28.194;2023-02-18T11:08:57;84741.85;;;21.92;41.90
55486;BME280;49383;-25.924;28.194;2023-02-18T11:11:27;84738.98;;;22.21;41.35
55486;BME280;49383;-25.924;28.194;2023-02-18T11:13:52;84740.39;;;22.15;41.48
55486;BME280;49383;-25.924;28.194;2023-02-18T11:16:12;84740.29;;;22.15;41.25
55486;BME280;49383;-25.924;28.194;2023-02-18T11:18:39;84739.03;;;22.05;41.31
55486;BME280;49383;-25.924;28.194;2023-02-18T11:21:08;84733.38;;;22.40;41.05
55486;BME280;49383;-25.924;28.194;2023-02-18T11:23:29;84728.53;;;22.40;41.33
55486;BME280;49383;-25.924;28.194;2023-02-18T11:25:57;84726.72;;;21.96;41.18
55486;BME280;49383;-25.924;28.194;2023-02-18T11:28:27;84725.01;;;22.53;40.93
55486;BME280;49383;-25.924;28.194;2023-02-18T11:30:47;84719.78;;;22.23;40.99
55486;BME280;49383;-25.924;28.194;2023-02-18T11:33:16;84713.12;;;22.33;40.78
55486;BME280;49383;-25.924;28.194;2023-02-18T11:35:36;84711.07;;;22.04;40.79
55486;BME280;49383;-25.924;28.194;2023-02-18T11:38:03;84706.62;;;22.21;40.85
55486;BME280;49383;-25.924;28.194;2023-02-18T11:40:31;84704.92;;;22.06;40.56
55486;BME280;49383;-25.924;28.194;2023-02-18T11:42:52;84704.91;;;22.67;40.28
55486;BME280;49383;-25.924;28.194;2023-02-18T11:47:42;84704.69;;;22.18;40.57
55486;BME280;49383;-25.924;28.194;2023-02-18T11:50:14;84703.98;;;22.31;40.63
55486;BME280;49383;-25.924;28.194;2023-02-18T11:52:35;84702.57;;;21.84;40.53
55486;BME280;49383;-25.924;28.194;2023-02-18T11:55:03;84697.07;;;22.48;40.24
55486;BME280;49383;-25.924;28.194;2023-02-18T11:57:22;84689.70;;;21.87;40.69
55486;BME280;49383;-25.924;28.194;2023-02-18T11:59:47;84686.80;;;22.08;41.32
55486;BME280;49383;-25.924;28.194;2023-02-18T12:02:25;84684.46;;;21.68;41.72
55486;BME280;49383;-25.924;28.194;2023-02-18T12:04:41;84682.61;;;22.17;41.02
55486;BME280;49383;-25.924;28.194;2023-02-18T12:07:16;84681.73;;;22.26;40.73
55486;BME280;49383;-25.924;28.194;2023-02-18T12:09:30;84677.82;;;22.07;40.95
55486;BME280;49383;-25.924;28.194;2023-02-18T12:11:55;84672.88;;;22.12;40.88
55486;BME280;49383;-25.924;28.194;2023-02-18T12:14:18;84670.14;;;22.30;42.41
55486;BME280;49383;-25.924;28.194;2023-02-18T12:16:48;84666.46;;;21.93;42.95
55486;BME280;49383;-25.924;28.194;2023-02-18T12:19:32;84661.89;;;21.93;41.01
55486;BME280;49383;-25.924;28.194;2023-02-18T12:21:38;84655.07;;;22.23;40.59
55486;BME280;49383;-25.924;28.194;2023-02-18T12:24:05;84650.66;;;22.04;40.55
55486;BME280;49383;-25.924;28.194;2023-02-18T12:26:25;84647.25;;;22.36;40.32
55486;BME280;49383;-25.924;28.194;2023-02-18T12:28:58;84641.91;;;22.15;40.24
55486;BME280;49383;-25.924;28.194;2023-02-18T12:31:27;84635.93;;;22.24;40.53
55486;BME280;49383;-25.924;28.194;2023-02-18T12:33:47;84631.37;;;21.93;40.60
55486;BME280;49383;-25.924;28.194;2023-02-18T12:36:09;84630.47;;;22.34;40.32
55486;BME280;49383;-25.924;28.194;2023-02-18T12:41:03;84629.14;;;22.15;40.33
55486;BME280;49383;-25.924;28.194;2023-02-18T12:43:25;84630.45;;;22.04;40.39
55486;BME280;49383;-25.924;28.194;2023-02-18T12:45:54;84631.06;;;22.21;40.63
55486;BME280;49383;-25.924;28.194;2023-02-18T12:48:21;84631.77;;;22.26;40.52
55486;BME280;49383;-25.924;28.194;2023-02-18T12:50:44;84628.50;;;21.68;40.70
55486;BME280;49383;-25.924;28.194;2023-02-18T12:53:12;84624.72;;;22.40;40.36